sensor_id;sensor_type;location;lat;lon;timestamp;pressure;altitude;pressure_sealevel;temperature;humidity
18323;BME280;9287;49.456;11.064;2023-02-01T00:00:44;98566.13;;;3.87;100.00
18323;BME280;9287;49.456;11.064;2023-02-01T00:03:11;98566.28;;;3.77;100.00
18323;BME280;9287;49.456;11.064;2023-02-01T00:05:41;98571.25;;;3.70;100.00
18323;BME280;9287;49.456;11.064;2023-02-01T00:08:08;98569.41;;;3.65;100.00
18323;BME280;9287;49.456;11.064;2023-02-01T00:10:37;98559.50;;;3.61;100.00
18323;BME280;9287;49.456;11.064;2023-02-01T00:13:06;98563.22;;;3.65;100.00
18323;BME280;9287;49.456;11.064;2023-02-01T00:15:37;98556.94;;;3.69;100.00
18323;BME280;9287;49.456;11.064;2023-02-01T00:18:05;98560.44;;;3.70;100.00
18323;BME280;9287;49.456;11.064;2023-02-01T00:20:33;98566.28;;;3.77;100.00
18323;BME280;9287;49.456;11.064;2023-02-01T00:23:01;98565.72;;;3.80;100.00
18323;BME280;9287;49.456;11.064;2023-02-01T00:25:29;98566.91;;;3.88;100.00
18323;BME280;9287;49.456;11.064;2023-02-01T00:27:58;98564.50;;;3.86;100.00
18323;BME280;9287;49.456;11.064;2023-02-01T00:30:27;98561.75;;;3.91;100.00
18323;BME280;9287;49.456;11.064;2023-02-01T00:32:54;98555.75;;;3.94;100.00
18323;BME280;9287;49.456;11.064;2023-02-01T00:35:22;98557.88;;;3.97;100.00
18323;BME280;9287;49.456;11.064;2023-02-01T00:37:50;98547.06;;;3.97;100.00
18323;BME280;9287;49.456;11.064;2023-02-01T00:40:17;98554.56;;;4.00;100.00
18323;BME280;9287;49.456;11.064;2023-02-01T00:42:46;98550.75;;;4.01;100.00
18323;BME280;9287;49.456;11.064;2023-02-01T00:45:15;98558.84;;;4.01;100.00
18323;BME280;9287;49.456;11.064;2023-02-01T00:47:43;98555.56;;;4.04;100.00
18323;BME280;9287;49.456;11.064;2023-02-01T00:50:10;98563.16;;;4.02;100.00
18323;BME280;9287;49.456;11.064;2023-02-01T00:52:38;98553.97;;;4.03;100.00
18323;BME280;9287;49.456;11.064;2023-02-01T00:55:06;98553.38;;;4.06;100.00
18323;BME280;9287;49.456;11.064;2023-02-01T00:57:34;98557.69;;;4.07;100.00
18323;BME280;9287;49.456;11.064;2023-02-01T01:00:02;98547.97;;;4.06;100.00
18323;BME280;9287;49.456;11.064;2023-02-01T01:02:32;98543.66;;;4.05;100.00
18323;BME280;9287;49.456;11.064;2023-02-01T01:04:59;98546.38;;;4.05;100.00
18323;BME280;9287;49.456;11.064;2023-02-01T01:07:27;98545.78;;;4.08;100.00
18323;BME280;9287;49.456;11.064;2023-02-01T01:09:55;98539.88;;;4.06;100.00
18323;BME280;9287;49.456;11.064;2023-02-01T01:12:23;98539.56;;;4.08;100.00
18323;BME280;9287;49.456;11.064;2023-02-01T01:14:51;98550.09;;;4.09;100.00
18323;BME280;9287;49.456;11.064;2023-02-01T01:17:18;98540.38;;;4.08;100.00
18323;BME280;9287;49.456;11.064;2023-02-01T01:19:47;98546.59;;;4.09;100.00
18323;BME280;9287;49.456;11.064;2023-02-01T01:22:15;98544.19;;;4.07;100.00
18323;BME280;9287;49.456;11.064;2023-02-01T01:24:44;98544.47;;;4.06;100.00
18323;BME280;9287;49.456;11.064;2023-02-01T01:27:12;98545.34;;;4.01;100.00
18323;BME280;9287;49.456;11.064;2023-02-01T01:29:40;98547.53;;;3.99;100.00
18323;BME280;9287;49.456;11.064;2023-02-01T01:32:08;98545.53;;;3.91;100.00
18323;BME280;9287;49.456;11.064;2023-02-01T01:34:35;98546.09;;;3.88;100.00
18323;BME280;9287;49.456;11.064;2023-02-01T01:37:04;98555.69;;;3.80;100.00
18323;BME280;9287;49.456;11.064;2023-02-01T01:39:32;98541.88;;;3.82;100.00
18323;BME280;9287;49.456;11.064;2023-02-01T01:42:00;98546.19;;;3.83;100.00
18323;BME280;9287;49.456;11.064;2023-02-01T01:44:57;98546.69;;;3.85;100.00
18323;BME280;9287;49.456;11.064;2023-02-01T01:47:25;98535.31;;;3.88;100.00
18323;BME280;9287;49.456;11.064;2023-02-01T01:49:54;98545.53;;;3.91;100.00
18323;BME280;9287;49.456;11.064;2023-02-01T01:52:24;98541.16;;;3.95;100.00
18323;BME280;9287;49.456;11.064;2023-02-01T01:54:53;98531.13;;;3.96;100.00
18323;BME280;9287;49.456;11.064;2023-02-01T01:57:23;98535.63;;;4.00;100.00
18323;BME280;9287;49.456;11.064;2023-02-01T01:59:56;98531.72;;;3.93;100.00
18323;BME280;9287;49.456;11.064;2023-02-01T02:02:28;98529.94;;;4.02;100.00
18323;BME280;9287;49.456;11.064;2023-02-01T02:04:56;98532.34;;;4.03;100.00
18323;BME280;9287;49.456;11.064;2023-02-01T02:07:28;98535.56;;;4.05;100.00
18323;BME280;9287;49.456;11.064;2023-02-01T02:09:57;98531.75;;;4.06;100.00
18323;BME280;9287;49.456;11.064;2023-02-01T02:12:27;98529.06;;;4.06;100.00
18323;BME280;9287;49.456;11.064;2023-02-01T02:14:55;98531.16;;;4.09;100.00
18323;BME280;9287;49.456;11.064;2023-02-01T02:17:30;98524.16;;;4.08;100.00
18323;BME280;9287;49.456;11.064;2023-02-01T02:20:22;98523.56;;;4.11;100.00
18323;BME280;9287;49.456;11.064;2023-02-01T02:29:23;98508.75;;;4.09;100.00
18323;BME280;9287;49.456;11.064;2023-02-01T02:35:03;98501.94;;;4.11;100.00
18323;BME280;9287;49.456;11.064;2023-02-01T02:37:39;98500.34;;;4.10;100.00
18323;BME280;9287;49.456;11.064;2023-02-01T02:40:14;98507.34;;;4.11;100.00
18323;BME280;9287;49.456;11.064;2023-02-01T02:42:49;98505.53;;;4.07;100.00
18323;BME280;9287;49.456;11.064;2023-02-01T02:45:40;98502.22;;;3.96;100.00
18323;BME280;9287;49.456;11.064;2023-02-01T02:48:29;98507.25;;;3.84;100.00
18323;BME280;9287;49.456;11.064;2023-02-01T02:51:01;98506.28;;;3.80;100.00
18323;BME280;9287;49.456;11.064;2023-02-01T02:53:54;98515.47;;;3.79;100.00
18323;BME280;9287;49.456;11.064;2023-02-01T02:56:43;98510.88;;;3.79;100.00
18323;BME280;9287;49.456;11.064;2023-02-01T02:59:28;98502.97;;;3.83;100.00
18323;BME280;9287;49.456;11.064;2023-02-01T03:02:15;98497.25;;;3.84;100.00
18323;BME280;9287;49.456;11.064;2023-02-01T03:05:02;98495.88;;;3.87;100.00
18323;BME280;9287;49.456;11.064;2023-02-01T03:07:55;98492.88;;;3.89;100.00
18323;BME280;9287;49.456;11.064;2023-02-01T03:10:31;98474.69;;;3.94;100.00
18323;BME280;9287;49.456;11.064;2023-02-01T03:13:04;98480.91;;;3.95;100.00
18323;BME280;9287;49.456;11.064;2023-02-01T03:15:36;98475.28;;;3.91;100.00
18323;BME280;9287;49.456;11.064;2023-02-01T03:18:12;98474.78;;;3.89;100.00
18323;BME280;9287;49.456;11.064;2023-02-01T03:20:45;98468.94;;;3.82;100.00
18323;BME280;9287;49.456;11.064;2023-02-01T03:23:17;98458.75;;;3.79;100.00
18323;BME280;9287;49.456;11.064;2023-02-01T03:25:48;98466.94;;;3.74;100.00
18323;BME280;9287;49.456;11.064;2023-02-01T03:28:19;98470.66;;;3.78;100.00
18323;BME280;9287;49.456;11.064;2023-02-01T03:30:50;98474.75;;;3.75;100.00
18323;BME280;9287;49.456;11.064;2023-02-01T03:33:21;98485.16;;;3.82;100.00
18323;BME280;9287;49.456;11.064;2023-02-01T03:35:57;98480.25;;;3.84;100.00
18323;BME280;9287;49.456;11.064;2023-02-01T03:38:31;98465.66;;;3.85;100.00
18323;BME280;9287;49.456;11.064;2023-02-01T03:41:05;98458.25;;;3.91;100.00
18323;BME280;9287;49.456;11.064;2023-02-01T03:43:43;98472.06;;;3.89;100.00
18323;BME280;9287;49.456;11.064;2023-02-01T03:46:18;98455.28;;;3.92;100.00
18323;BME280;9287;49.456;11.064;2023-02-01T03:48:49;98469.50;;;3.98;100.00
18323;BME280;9287;49.456;11.064;2023-02-01T03:51:19;98470.91;;;3.95;100.00
18323;BME280;9287;49.456;11.064;2023-02-01T03:53:49;98455.66;;;3.99;100.00
18323;BME280;9287;49.456;11.064;2023-02-01T03:56:18;98451.88;;;4.00;100.00
18323;BME280;9287;49.456;11.064;2023-02-01T03:58:48;98460.47;;;4.02;100.00
18323;BME280;9287;49.456;11.064;2023-02-01T04:01:27;98455.59;;;4.04;100.00
18323;BME280;9287;49.456;11.064;2023-02-01T04:03:56;98448.06;;;4.01;100.00
18323;BME280;9287;49.456;11.064;2023-02-01T04:06:24;98440.97;;;4.05;100.00
18323;BME280;9287;49.456;11.064;2023-02-01T04:08:53;98443.69;;;4.05;100.00
18323;BME280;9287;49.456;11.064;2023-02-01T04:11:21;98440.69;;;4.07;100.00
18323;BME280;9287;49.456;11.064;2023-02-01T04:13:49;98439.28;;;4.09;100.00
18323;BME280;9287;49.456;11.064;2023-02-01T04:16:16;98426.88;;;4.08;100.00
18323;BME280;9287;49.456;11.064;2023-02-01T04:18:44;98434.47;;;4.06;100.00
18323;BME280;9287;49.456;11.064;2023-02-01T04:21:11;98431.69;;;4.11;100.00
18323;BME280;9287;49.456;11.064;2023-02-01T04:23:39;98435.47;;;4.10;100.00
18323;BME280;9287;49.456;11.064;2023-02-01T04:26:08;98432.69;;;4.15;100.00
18323;BME280;9287;49.456;11.064;2023-02-01T04:28:36;98439.50;;;4.13;100.00
18323;BME280;9287;49.456;11.064;2023-02-01T04:31:04;98427.88;;;4.12;100.00
18323;BME280;9287;49.456;11.064;2023-02-01T04:33:32;98431.09;;;4.14;100.00
18323;BME280;9287;49.456;11.064;2023-02-01T04:35:59;98430.47;;;4.17;100.00
18323;BME280;9287;49.456;11.064;2023-02-01T04:38:27;98427.97;;;4.07;100.00
18323;BME280;9287;49.456;11.064;2023-02-01T04:40:55;98441.84;;;4.01;100.00
18323;BME280;9287;49.456;11.064;2023-02-01T04:43:24;98423.34;;;3.94;100.00
18323;BME280;9287;49.456;11.064;2023-02-01T04:45:52;98438.41;;;3.81;100.00
18323;BME280;9287;49.456;11.064;2023-02-01T04:48:20;98435.63;;;3.73;100.00
18323;BME280;9287;49.456;11.064;2023-02-01T04:50:50;98434.09;;;3.67;100.00
18323;BME280;9287;49.456;11.064;2023-02-01T04:53:18;98427.19;;;3.61;100.00
18323;BME280;9287;49.456;11.064;2023-02-01T04:55:48;98427.78;;;3.58;100.00
18323;BME280;9287;49.456;11.064;2023-02-01T04:58:16;98433.75;;;3.55;100.00
18323;BME280;9287;49.456;11.064;2023-02-01T05:00:45;98426.16;;;3.57;100.00
18323;BME280;9287;49.456;11.064;2023-02-01T05:03:13;98426.75;;;3.54;100.00
18323;BME280;9287;49.456;11.064;2023-02-01T05:05:40;98439.16;;;3.55;100.00
18323;BME280;9287;49.456;11.064;2023-02-01T05:08:08;98426.16;;;3.57;100.00
18323;BME280;9287;49.456;11.064;2023-02-01T05:10:36;98440.75;;;3.56;100.00
18323;BME280;9287;49.456;11.064;2023-02-01T05:13:03;98435.94;;;3.53;100.00
18323;BME280;9287;49.456;11.064;2023-02-01T05:15:51;98438.72;;;3.47;100.00
18323;BME280;9287;49.456;11.064;2023-02-01T05:18:19;98427.34;;;3.50;100.00
18323;BME280;9287;49.456;11.064;2023-02-01T05:20:46;98432.75;;;3.50;100.00
18323;BME280;9287;49.456;11.064;2023-02-01T05:23:14;98431.22;;;3.44;100.00
18323;BME280;9287;49.456;11.064;2023-02-01T05:25:42;98433.94;;;3.44;100.00
18323;BME280;9287;49.456;11.064;2023-02-01T05:28:09;98438.31;;;3.40;100.00
18323;BME280;9287;49.456;11.064;2023-02-01T05:30:37;98442.50;;;3.46;100.00
18323;BME280;9287;49.456;11.064;2023-02-01T05:33:09;98448.44;;;3.48;100.00
18323;BME280;9287;49.456;11.064;2023-02-01T05:35:36;98454.72;;;3.44;100.00
18323;BME280;9287;49.456;11.064;2023-02-01T05:38:04;98451.13;;;3.48;100.00
18323;BME280;9287;49.456;11.064;2023-02-01T05:40:32;98456.53;;;3.48;100.00
18323;BME280;9287;49.456;11.064;2023-02-01T05:42:59;98460.31;;;3.47;100.00
18323;BME280;9287;49.456;11.064;2023-02-01T05:45:27;98467.94;;;3.45;100.00
18323;BME280;9287;49.456;11.064;2023-02-01T05:47:55;98466.91;;;3.41;100.00
18323;BME280;9287;49.456;11.064;2023-02-01T05:50:24;98455.72;;;3.48;100.00
18323;BME280;9287;49.456;11.064;2023-02-01T05:52:51;98466.81;;;3.46;100.00
18323;BME280;9287;49.456;11.064;2023-02-01T05:55:19;98457.78;;;3.37;100.00
18323;BME280;9287;49.456;11.064;2023-02-01T05:57:47;98458.72;;;3.46;100.00
18323;BME280;9287;49.456;11.064;2023-02-01T06:00:15;98457.28;;;3.35;100.00
18323;BME280;9287;49.456;11.064;2023-02-01T06:02:42;98453.66;;;3.26;100.00
18323;BME280;9287;49.456;11.064;2023-02-01T06:05:10;98443.44;;;3.23;100.00
18323;BME280;9287;49.456;11.064;2023-02-01T06:07:39;98449.56;;;3.10;100.00
18323;BME280;9287;49.456;11.064;2023-02-01T06:10:08;98441.50;;;3.10;100.00
18323;BME280;9287;49.456;11.064;2023-02-01T06:12:36;98426.28;;;2.95;100.00
18323;BME280;9287;49.456;11.064;2023-02-01T06:15:05;98426.09;;;2.92;100.00
18323;BME280;9287;49.456;11.064;2023-02-01T06:17:33;98420.09;;;2.95;100.00
18323;BME280;9287;49.456;11.064;2023-02-01T06:20:00;98423.41;;;2.92;100.00
18323;BME280;9287;49.456;11.064;2023-02-01T06:22:28;98429.31;;;2.94;100.00
18323;BME280;9287;49.456;11.064;2023-02-01T06:24:57;98424.91;;;2.98;100.00
18323;BME280;9287;49.456;11.064;2023-02-01T06:27:25;98427.31;;;2.99;100.00
18323;BME280;9287;49.456;11.064;2023-02-01T06:29:53;98425.94;;;3.02;100.00
18323;BME280;9287;49.456;11.064;2023-02-01T06:32:21;98423.75;;;3.04;100.00
18323;BME280;9287;49.456;11.064;2023-02-01T06:34:49;98423.19;;;3.07;100.00
18323;BME280;9287;49.456;11.064;2023-02-01T06:37:18;98414.28;;;3.06;100.00
18323;BME280;9287;49.456;11.064;2023-02-01T06:39:48;98424.78;;;3.08;100.00
18323;BME280;9287;49.456;11.064;2023-02-01T06:42:17;98431.19;;;3.12;100.00
18323;BME280;9287;49.456;11.064;2023-02-01T06:44:45;98429.59;;;3.11;100.00
18323;BME280;9287;49.456;11.064;2023-02-01T06:47:13;98422.50;;;3.15;100.00
18323;BME280;9287;49.456;11.064;2023-02-01T06:49:40;98421.41;;;3.16;100.00
18323;BME280;9287;49.456;11.064;2023-02-01T06:52:08;98419.81;;;3.15;100.00
18323;BME280;9287;49.456;11.064;2023-02-01T06:54:36;98404.63;;;3.19;100.00
18323;BME280;9287;49.456;11.064;2023-02-01T06:57:04;98409.00;;;3.15;100.00
18323;BME280;9287;49.456;11.064;2023-02-01T06:59:35;98413.31;;;3.16;100.00
18323;BME280;9287;49.456;11.064;2023-02-01T07:02:03;98410.63;;;3.16;100.00
18323;BME280;9287;49.456;11.064;2023-02-01T07:04:31;98414.41;;;3.15;100.00
18323;BME280;9287;49.456;11.064;2023-02-01T07:06:58;98420.81;;;3.19;100.00
18323;BME280;9287;49.456;11.064;2023-02-01T07:09:26;98419.22;;;3.18;100.00
18323;BME280;9287;49.456;11.064;2023-02-01T07:11:54;98418.13;;;3.19;100.00
18323;BME280;9287;49.456;11.064;2023-02-01T07:14:22;98427.25;;;3.23;100.00
18323;BME280;9287;49.456;11.064;2023-02-01T07:16:51;98418.63;;;3.21;100.00
18323;BME280;9287;49.456;11.064;2023-02-01T07:19:18;98419.66;;;3.25;100.00
18323;BME280;9287;49.456;11.064;2023-02-01T07:21:46;98428.28;;;3.27;100.00
18323;BME280;9287;49.456;11.064;2023-02-01T07:24:14;98426.56;;;3.31;100.00
18323;BME280;9287;49.456;11.064;2023-02-01T07:26:42;98419.28;;;3.32;100.00
18323;BME280;9287;49.456;11.064;2023-02-01T07:29:09;98424.88;;;3.35;100.00
18323;BME280;9287;49.456;11.064;2023-02-01T07:31:37;98424.31;;;3.38;100.00
18323;BME280;9287;49.456;11.064;2023-02-01T07:34:06;98413.72;;;3.42;100.00
18323;BME280;9287;49.456;11.064;2023-02-01T07:36:34;98423.63;;;3.46;100.00
18323;BME280;9287;49.456;11.064;2023-02-01T07:39:02;98425.16;;;3.53;100.00
18323;BME280;9287;49.456;11.064;2023-02-01T07:41:30;98430.56;;;3.53;100.00
18323;BME280;9287;49.456;11.064;2023-02-01T07:43:58;98432.66;;;3.56;100.00
18323;BME280;9287;49.456;11.064;2023-02-01T07:46:25;98418.56;;;3.59;100.00
18323;BME280;9287;49.456;11.064;2023-02-01T07:48:53;98412.59;;;3.62;100.00
18323;BME280;9287;49.456;11.064;2023-02-01T07:51:22;98413.56;;;3.66;100.00
18323;BME280;9287;49.456;11.064;2023-02-01T07:53:50;98414.09;;;3.68;100.00
18323;BME280;9287;49.456;11.064;2023-02-01T07:56:20;98412.63;;;3.75;100.00
18323;BME280;9287;49.456;11.064;2023-02-01T07:58:50;98419.03;;;3.79;100.00
18323;BME280;9287;49.456;11.064;2023-02-01T08:01:20;98411.63;;;3.85;100.00
18323;BME280;9287;49.456;11.064;2023-02-01T08:03:47;98400.22;;;3.88;100.00
18323;BME280;9287;49.456;11.064;2023-02-01T08:06:15;98398.03;;;3.90;100.00
18323;BME280;9287;49.456;11.064;2023-02-01T08:08:45;98403.84;;;3.97;100.00
18323;BME280;9287;49.456;11.064;2023-02-01T08:11:13;98390.22;;;4.02;100.00
18323;BME280;9287;49.456;11.064;2023-02-01T08:13:41;98396.13;;;4.04;100.00
18323;BME280;9287;49.456;11.064;2023-02-01T08:16:11;98400.34;;;4.10;100.00
18323;BME280;9287;49.456;11.064;2023-02-01T08:18:40;98395.44;;;4.12;100.00
18323;BME280;9287;49.456;11.064;2023-02-01T08:21:09;98391.66;;;4.13;100.00
18323;BME280;9287;49.456;11.064;2023-02-01T08:23:39;98384.22;;;4.33;100.00
18323;BME280;9287;49.456;11.064;2023-02-01T08:26:10;98374.16;;;4.61;100.00
18323;BME280;9287;49.456;11.064;2023-02-01T08:28:40;98390.66;;;5.09;100.00
18323;BME280;9287;49.456;11.064;2023-02-01T08:31:10;98392.53;;;5.00;100.00
18323;BME280;9287;49.456;11.064;2023-02-01T08:33:37;98403.59;;;4.76;100.00
18323;BME280;9287;49.456;11.064;2023-02-01T08:36:07;98415.44;;;4.66;100.00
18323;BME280;9287;49.456;11.064;2023-02-01T08:38:35;98427.47;;;4.60;100.00
18323;BME280;9287;49.456;11.064;2023-02-01T08:41:04;98422.66;;;4.57;100.00
18323;BME280;9287;49.456;11.064;2023-02-01T08:43:34;98428.38;;;4.55;100.00
18323;BME280;9287;49.456;11.064;2023-02-01T08:46:03;98432.88;;;4.60;100.00
18323;BME280;9287;49.456;11.064;2023-02-01T08:48:31;98421.66;;;4.53;100.00
18323;BME280;9287;49.456;11.064;2023-02-01T08:51:01;98439.09;;;4.47;100.00
18323;BME280;9287;49.456;11.064;2023-02-01T08:53:29;98438.69;;;4.53;100.00
18323;BME280;9287;49.456;11.064;2023-02-01T08:55:56;98436.47;;;4.55;100.00
18323;BME280;9287;49.456;11.064;2023-02-01T08:58:24;98430.06;;;4.65;100.00
18323;BME280;9287;49.456;11.064;2023-02-01T09:00:53;98434.97;;;4.63;100.00
18323;BME280;9287;49.456;11.064;2023-02-01T09:03:21;98432.06;;;4.60;100.00
18323;BME280;9287;49.456;11.064;2023-02-01T09:05:49;98429.66;;;4.58;100.00
18323;BME280;9287;49.456;11.064;2023-02-01T09:08:19;98429.66;;;4.58;100.00
18323;BME280;9287;49.456;11.064;2023-02-01T09:10:47;98437.69;;;4.63;100.00
18323;BME280;9287;49.456;11.064;2023-02-01T09:13:15;98444.69;;;4.64;100.00
18323;BME280;9287;49.456;11.064;2023-02-01T09:15:43;98425.88;;;4.59;100.00
18323;BME280;9287;49.456;11.064;2023-02-01T09:18:12;98441.91;;;4.42;100.00
18323;BME280;9287;49.456;11.064;2023-02-01T09:20:39;98444.59;;;4.28;100.00
18323;BME280;9287;49.456;11.064;2023-02-01T09:23:07;98469.91;;;4.18;100.00
18323;BME280;9287;49.456;11.064;2023-02-01T09:25:36;98469.41;;;4.16;100.00
18323;BME280;9287;49.456;11.064;2023-02-01T09:28:04;98466.91;;;4.06;100.00
18323;BME280;9287;49.456;11.064;2023-02-01T09:30:33;98473.91;;;4.07;100.00
18323;BME280;9287;49.456;11.064;2023-02-01T09:33:01;98496.13;;;3.72;100.00
18323;BME280;9287;49.456;11.064;2023-02-01T09:35:30;98496.78;;;3.64;100.00
18323;BME280;9287;49.456;11.064;2023-02-01T09:37:58;98506.16;;;3.53;100.00
18323;BME280;9287;49.456;11.064;2023-02-01T09:40:25;98511.44;;;3.25;100.00
18323;BME280;9287;49.456;11.064;2023-02-01T09:43:07;98491.72;;;3.06;100.00
18323;BME280;9287;49.456;11.064;2023-02-01T09:45:43;98498.50;;;3.03;100.00
18323;BME280;9287;49.456;11.064;2023-02-01T09:48:15;98506.16;;;3.15;100.00
18323;BME280;9287;49.456;11.064;2023-02-01T09:50:48;98522.13;;;3.30;100.00
18323;BME280;9287;49.456;11.064;2023-02-01T09:53:21;98524.69;;;3.40;100.00
18323;BME280;9287;49.456;11.064;2023-02-01T09:55:53;98536.94;;;3.52;100.00
18323;BME280;9287;49.456;11.064;2023-02-01T09:58:27;98527.88;;;3.80;100.00
18323;BME280;9287;49.456;11.064;2023-02-01T10:01:00;98534.13;;;3.94;100.00
18323;BME280;9287;49.456;11.064;2023-02-01T10:03:32;98538.78;;;4.07;100.00
18323;BME280;9287;49.456;11.064;2023-02-01T10:15:27;98540.00;;;4.15;100.00
18323;BME280;9287;49.456;11.064;2023-02-01T10:18:10;98537.19;;;4.20;100.00
18323;BME280;9287;49.456;11.064;2023-02-01T10:21:01;98532.00;;;4.24;100.00
18323;BME280;9287;49.456;11.064;2023-02-01T10:23:52;98527.81;;;4.31;100.00
18323;BME280;9287;49.456;11.064;2023-02-01T10:26:45;98524.41;;;4.39;100.00
18323;BME280;9287;49.456;11.064;2023-02-01T10:29:17;98512.63;;;4.49;100.00
18323;BME280;9287;49.456;11.064;2023-02-01T10:31:46;98507.38;;;4.52;100.00
18323;BME280;9287;49.456;11.064;2023-02-01T10:34:18;98513.00;;;4.56;100.00
18323;BME280;9287;49.456;11.064;2023-02-01T10:36:54;98512.41;;;4.59;100.00
18323;BME280;9287;49.456;11.064;2023-02-01T10:39:24;98504.72;;;4.66;100.00
18323;BME280;9287;49.456;11.064;2023-02-01T10:41:52;98512.19;;;4.69;100.00
18323;BME280;9287;49.456;11.064;2023-02-01T10:44:24;98498.38;;;4.71;100.00
18323;BME280;9287;49.456;11.064;2023-02-01T10:46:52;98522.72;;;4.71;100.00
18323;BME280;9287;49.456;11.064;2023-02-01T10:49:24;98507.09;;;4.68;100.00
18323;BME280;9287;49.456;11.064;2023-02-01T10:51:57;98519.34;;;4.65;100.00
18323;BME280;9287;49.456;11.064;2023-02-01T10:54:34;98518.41;;;4.56;100.00
18323;BME280;9287;49.456;11.064;2023-02-01T10:57:07;98516.22;;;4.44;100.00
18323;BME280;9287;49.456;11.064;2023-02-01T10:59:35;98518.41;;;4.42;100.00
18323;BME280;9287;49.456;11.064;2023-02-01T11:02:15;98512.41;;;4.32;100.00
18323;BME280;9287;49.456;11.064;2023-02-01T11:04:43;98507.47;;;4.34;100.00
18323;BME280;9287;49.456;11.064;2023-02-01T11:07:16;98505.38;;;4.31;100.00
18323;BME280;9287;49.456;11.064;2023-02-01T11:09:51;98507.38;;;4.39;100.00
18323;BME280;9287;49.456;11.064;2023-02-01T11:12:25;98500.78;;;4.45;100.00
18323;BME280;9287;49.456;11.064;2023-02-01T11:14:58;98490.19;;;4.48;100.00
18323;BME280;9287;49.456;11.064;2023-02-01T11:17:33;98492.59;;;4.50;100.00
18323;BME280;9287;49.456;11.064;2023-02-01T11:20:04;98487.56;;;4.57;100.00
18323;BME280;9287;49.456;11.064;2023-02-01T11:22:33;98481.97;;;4.67;100.00
18323;BME280;9287;49.456;11.064;2023-02-01T11:25:08;98482.34;;;4.74;100.00
18323;BME280;9287;49.456;11.064;2023-02-01T11:27:37;98449.28;;;4.77;100.00
18323;BME280;9287;49.456;11.064;2023-02-01T11:30:30;98460.50;;;4.84;100.00
18323;BME280;9287;49.456;11.064;2023-02-01T11:32:59;98465.28;;;4.87;100.00
18323;BME280;9287;49.456;11.064;2023-02-01T11:35:31;98464.31;;;4.83;100.00
18323;BME280;9287;49.456;11.064;2023-02-01T11:37:59;98464.50;;;4.87;100.00
18323;BME280;9287;49.456;11.064;2023-02-01T11:40:35;98466.91;;;4.88;100.00
18323;BME280;9287;49.456;11.064;2023-02-01T11:43:08;98471.09;;;4.95;100.00
18323;BME280;9287;49.456;11.064;2023-02-01T11:45:37;98457.47;;;5.00;100.00
18323;BME280;9287;49.456;11.064;2023-02-01T11:48:08;98471.38;;;5.07;100.00
18323;BME280;9287;49.456;11.064;2023-02-01T11:50:49;98459.75;;;5.06;100.00
18323;BME280;9287;49.456;11.064;2023-02-01T11:53:36;98456.25;;;5.06;100.00
18323;BME280;9287;49.456;11.064;2023-02-01T11:56:17;98454.63;;;5.05;100.00
18323;BME280;9287;49.456;11.064;2023-02-01T11:59:02;98452.06;;;5.00;100.00
18323;BME280;9287;49.456;11.064;2023-02-01T12:01:57;98448.56;;;4.85;100.00
18323;BME280;9287;49.456;11.064;2023-02-01T12:04:50;98452.88;;;4.86;100.00
18323;BME280;9287;49.456;11.064;2023-02-01T12:07:28;98456.06;;;4.88;100.00
18323;BME280;9287;49.456;11.064;2023-02-01T12:10:15;98449.34;;;4.86;100.00
18323;BME280;9287;49.456;11.064;2023-02-01T12:12:56;98452.47;;;4.93;100.00
18323;BME280;9287;49.456;11.064;2023-02-01T12:15:39;98445.41;;;5.06;100.00
18323;BME280;9287;49.456;11.064;2023-02-01T12:18:42;98452.44;;;5.07;100.00
18323;BME280;9287;49.456;11.064;2023-02-01T12:21:31;98451.06;;;4.96;100.00
18323;BME280;9287;49.456;11.064;2023-02-01T12:24:22;98442.53;;;4.88;100.00
18323;BME280;9287;49.456;11.064;2023-02-01T12:27:05;98435.53;;;4.87;100.00
18323;BME280;9287;49.456;11.064;2023-02-01T12:29:48;98430.13;;;4.87;100.00
18323;BME280;9287;49.456;11.064;2023-02-01T12:32:34;98423.19;;;4.95;100.00
18323;BME280;9287;49.456;11.064;2023-02-01T12:38:23;98399.91;;;5.08;100.00
18323;BME280;9287;49.456;11.064;2023-02-01T12:41:10;98409.50;;;5.14;100.00
18323;BME280;9287;49.456;11.064;2023-02-01T12:43:45;98414.13;;;5.13;100.00
18323;BME280;9287;49.456;11.064;2023-02-01T12:46:18;98408.91;;;5.17;100.00
18323;BME280;9287;49.456;11.064;2023-02-01T12:48:54;98404.09;;;5.14;100.00
18323;BME280;9287;49.456;11.064;2023-02-01T12:51:27;98395.66;;;5.15;100.00
18323;BME280;9287;49.456;11.064;2023-02-01T12:54:00;98403.50;;;5.17;100.00
18323;BME280;9287;49.456;11.064;2023-02-01T12:56:33;98403.50;;;5.17;100.00
18323;BME280;9287;49.456;11.064;2023-02-01T12:59:04;98394.25;;;5.18;100.00
18323;BME280;9287;49.456;11.064;2023-02-01T13:01:40;98402.06;;;5.19;100.00
18323;BME280;9287;49.456;11.064;2023-02-01T13:04:16;98397.44;;;5.20;100.00
18323;BME280;9287;49.456;11.064;2023-02-01T13:06:49;98393.63;;;5.21;100.00
18323;BME280;9287;49.456;11.064;2023-02-01T13:09:22;98400.94;;;5.20;100.00
18323;BME280;9287;49.456;11.064;2023-02-01T13:11:55;98395.88;;;5.19;100.00
18323;BME280;9287;49.456;11.064;2023-02-01T13:14:30;98393.88;;;5.11;100.00
18323;BME280;9287;49.456;11.064;2023-02-01T13:17:04;98392.69;;;5.03;100.00
18323;BME280;9287;49.456;11.064;2023-02-01T13:19:41;98386.31;;;4.99;100.00
18323;BME280;9287;49.456;11.064;2023-02-01T13:22:13;98393.13;;;4.97;100.00
18323;BME280;9287;49.456;11.064;2023-02-01T13:24:45;98393.53;;;4.90;100.00
18323;BME280;9287;49.456;11.064;2023-02-01T13:27:16;98390.94;;;4.85;100.00
18323;BME280;9287;49.456;11.064;2023-02-01T13:29:51;98398.88;;;4.81;100.00
18323;BME280;9287;49.456;11.064;2023-02-01T13:32:31;98400.47;;;4.82;100.00
18323;BME280;9287;49.456;11.064;2023-02-01T13:35:38;98397.16;;;4.85;100.00
18323;BME280;9287;49.456;11.064;2023-02-01T13:38:36;98388.31;;;4.94;100.00
18323;BME280;9287;49.456;11.064;2023-02-01T13:41:18;98394.72;;;4.98;100.00
18323;BME280;9287;49.456;11.064;2023-02-01T13:43:55;98373.28;;;5.01;100.00
18323;BME280;9287;49.456;11.064;2023-02-01T13:46:25;98394.47;;;5.08;100.00